Time;durP1;ratioP1;P1;durP2;ratioP2;P2;SDS_P1;SDS_P2;PMS_P1;PMS_P2;Temp;Humidity;BMP_temperature;BMP_pressure;BME280_temperature;BME280_humidity;BME280_pressure;Samples;Min_cycle;Max_cycle;Signal;HPM_P1;HPM_P2
2023/03/31 00:02:00;;;;;;;16.40;2.80;;;10.60;99.90;;;;;;5058755;28;20044;-83
2023/03/31 00:04:30;;;;;;;7.50;1.55;;;10.60;99.90;;;;;;5077277;28;20041;-82
2023/03/31 00:09:44;;;;;;;13.70;2.63;;;10.70;99.90;;;;;;5075598;28;20051;-83
2023/03/31 00:12:12;;;;;;;14.68;2.55;;;10.60;99.90;;;;;;5076323;28;20457;-81
2023/03/31 00:14:39;;;;;;;28.30;2.65;;;10.60;99.90;;;;;;5076668;28;20041;-81
2023/03/31 00:17:08;;;;;;;13.35;2.17;;;10.60;99.90;;;;;;5075692;28;20036;-81
2023/03/31 00:19:34;;;;;;;12.52;2.15;;;10.60;99.90;;;;;;5059494;28;20048;-81
2023/03/31 00:22:01;;;;;;;10.05;1.95;;;10.50;99.90;;;;;;5075802;28;20052;-81
2023/03/31 00:24:31;;;;;;;16.55;2.67;;;10.50;99.90;;;;;;5076004;28;20123;-82
2023/03/31 00:30:02;;;;;;;12.93;2.17;;;10.50;99.90;;;;;;5075960;28;20508;-83
2023/03/31 00:32:29;;;;;;;23.13;1.95;;;10.40;99.90;;;;;;5076059;28;20139;-82
2023/03/31 00:34:56;;;;;;;18.10;2.38;;;10.30;99.90;;;;;;5059463;28;20070;-82
2023/03/31 00:40:27;;;;;;;11.68;2.28;;;10.20;99.90;;;;;;5077088;28;20048;-82
2023/03/31 00:42:53;;;;;;;12.07;2.50;;;10.20;99.90;;;;;;5075246;28;20386;-82
2023/03/31 00:45:20;;;;;;;7.97;1.80;;;10.10;99.90;;;;;;5090079;28;20470;-83
2023/03/31 00:50:32;;;;;;;11.95;2.47;;;10.20;99.90;;;;;;5095990;28;20048;-84
2023/03/31 00:52:59;;;;;;;13.63;1.95;;;10.20;99.90;;;;;;5096052;28;20047;-81
2023/03/31 00:55:26;;;;;;;9.73;2.10;;;10.20;99.90;;;;;;5078118;28;20047;-82
2023/03/31 00:57:54;;;;;;;7.43;1.85;;;10.20;99.90;;;;;;5095569;28;20052;-83
2023/03/31 01:00:22;;;;;;;15.32;2.38;;;10.30;99.90;;;;;;5095775;28;20051;-81
2023/03/31 01:02:54;;;;;;;6.85;1.38;;;10.30;99.90;;;;;;5094738;28;20054;-83
2023/03/31 01:05:21;;;;;;;;;;;10.30;99.90;;;;;;5096166;28;20458;-81
2023/03/31 01:07:48;;;;;;;9.73;1.92;;;10.30;99.90;;;;;;5095395;28;19985;-82
2023/03/31 01:10:15;;;;;;;17.00;2.40;;;10.30;99.90;;;;;;5093851;28;20036;-82
2023/03/31 01:12:41;;;;;;;10.45;1.77;;;10.30;99.90;;;;;;5078603;28;20369;-82
2023/03/31 01:15:08;;;;;;;7.43;2.10;;;10.30;99.90;;;;;;5095403;28;20044;-82
2023/03/31 01:17:35;;;;;;;15.55;2.03;;;10.30;99.90;;;;;;5093970;28;20036;-82
2023/03/31 01:20:12;;;;;;;7.60;1.85;;;10.30;99.90;;;;;;5094886;28;20040;-82
2023/03/31 01:22:39;;;;;;;10.35;2.60;;;10.30;99.90;;;;;;5095227;28;20097;-81
2023/03/31 01:25:07;;;;;;;10.20;2.10;;;10.30;99.90;;;;;;5096238;28;20101;-81
2023/03/31 01:27:34;;;;;;;7.72;1.83;;;10.40;99.90;;;;;;5095996;28;20064;-82
2023/03/31 01:30:01;;;;;;;9.18;1.60;;;10.30;99.90;;;;;;5094393;28;20040;-82
2023/03/31 01:32:28;;;;;;;10.40;1.80;;;10.40;99.90;;;;;;5078302;28;20374;-82
2023/03/31 01:34:55;;;;;;;10.73;2.28;;;10.40;99.90;;;;;;5094911;28;20031;-81
2023/03/31 01:37:22;;;;;;;7.85;1.70;;;10.40;99.90;;;;;;5093980;28;20097;-82
2023/03/31 01:39:48;;;;;;;8.50;1.75;;;10.50;99.90;;;;;;5094351;28;20451;-82
2023/03/31 01:42:15;;;;;;;9.95;1.80;;;10.50;99.90;;;;;;5093535;28;20032;-82
2023/03/31 01:44:42;;;;;;;8.80;1.52;;;10.50;99.90;;;;;;5094401;28;20062;-82
2023/03/31 01:47:09;;;;;;;8.65;1.85;;;10.60;99.90;;;;;;5094591;28;20043;-82
2023/03/31 01:49:35;;;;;;;9.57;1.90;;;10.60;99.90;;;;;;5092920;28;20048;-82
2023/03/31 01:52:04;;;;;;;7.85;1.90;;;10.60;99.90;;;;;;5094491;28;20135;-82
2023/03/31 01:54:32;;;;;;;12.95;2.25;;;10.60;99.90;;;;;;5078021;28;20101;-82
2023/03/31 01:56:59;;;;;;;16.58;2.55;;;10.70;99.90;;;;;;5093196;28;20075;-82
2023/03/31 01:59:26;;;;;;;6.68;1.60;;;10.70;99.90;;;;;;5093946;28;20417;-80
2023/03/31 02:01:55;;;;;;;12.25;2.08;;;10.70;99.90;;;;;;5094518;28;20036;-83
2023/03/31 02:04:21;;;;;;;13.35;2.22;;;10.70;99.90;;;;;;5093448;28;20378;-82
2023/03/31 02:06:51;;;;;;;12.20;2.20;;;10.60;99.90;;;;;;5095253;28;20533;-82
2023/03/31 02:09:18;;;;;;;8.52;1.80;;;10.70;99.90;;;;;;5093011;28;20044;-82
2023/03/31 02:11:45;;;;;;;16.23;2.25;;;10.70;99.90;;;;;;5094110;28;20036;-84
2023/03/31 02:14:11;;;;;;;13.13;2.08;;;10.70;99.90;;;;;;5094119;28;20036;-81
2023/03/31 02:16:40;;;;;;;8.85;1.75;;;10.70;99.90;;;;;;5092939;28;20032;-82
2023/03/31 02:19:07;;;;;;;13.30;1.88;;;10.70;99.90;;;;;;5093809;28;20075;-81
2023/03/31 02:21:34;;;;;;;14.18;2.45;;;10.70;99.90;;;;;;5094253;28;20040;-82
2023/03/31 02:24:03;;;;;;;7.93;1.77;;;10.70;99.90;;;;;;5076487;28;20076;-80
2023/03/31 02:26:30;;;;;;;12.57;2.15;;;10.70;99.90;;;;;;5093884;28;20054;-82
2023/03/31 02:28:56;;;;;;;15.93;2.30;;;10.70;99.90;;;;;;5092529;28;20155;-82
2023/03/31 02:31:23;;;;;;;13.88;2.00;;;10.70;99.90;;;;;;5093529;28;20035;-82
2023/03/31 02:33:50;;;;;;;18.15;2.35;;;10.70;99.90;;;;;;5095045;28;20458;-81
2023/03/31 02:36:17;;;;;;;11.80;2.72;;;10.70;99.90;;;;;;5076029;28;20047;-81
2023/03/31 02:38:44;;;;;;;12.27;1.67;;;10.70;99.90;;;;;;5093194;28;20377;-81
2023/03/31 02:41:10;;;;;;;14.93;1.95;;;10.70;99.90;;;;;;5093864;28;20044;-83
2023/03/31 02:43:37;;;;;;;12.48;2.45;;;10.60;99.90;;;;;;5092619;28;20052;-81
2023/03/31 02:46:05;;;;;;;7.18;1.42;;;10.60;99.90;;;;;;5076963;28;20051;-82
2023/03/31 02:48:32;;;;;;;8.75;1.95;;;10.60;99.90;;;;;;5093435;28;20082;-81
2023/03/31 02:51:00;;;;;;;11.18;2.13;;;10.60;99.90;;;;;;5075965;28;20474;-82
2023/03/31 02:53:27;;;;;;;18.42;2.30;;;10.60;99.90;;;;;;5094676;28;20072;-82
2023/03/31 02:55:56;;;;;;;16.33;3.05;;;10.60;99.90;;;;;;5094898;28;20036;-82
2023/03/31 02:58:23;;;;;;;21.52;3.63;;;10.50;99.90;;;;;;5096566;28;20101;-81
2023/03/31 03:00:50;;;;;;;23.08;3.40;;;10.60;99.90;;;;;;5080400;28;20130;-83
2023/03/31 03:03:17;;;;;;;23.52;2.75;;;10.60;99.90;;;;;;5095988;28;20088;-82
2023/03/31 03:05:44;;;;;;;30.33;4.32;;;10.50;99.90;;;;;;5097063;28;20074;-81
2023/03/31 03:08:30;;;;;;;29.23;4.78;;;10.50;99.90;;;;;;5114729;28;20151;-85
2023/03/31 03:10:56;;;;;;;27.73;3.85;;;10.50;99.90;;;;;;5079208;28;20048;-81
2023/03/31 03:13:23;;;;;;;26.00;3.97;;;10.50;99.90;;;;;;5096974;28;20523;-82
2023/03/31 03:15:49;;;;;;;22.05;3.53;;;10.50;99.90;;;;;;5096446;28;20043;-83
2023/03/31 03:18:16;;;;;;;27.10;3.45;;;10.50;99.90;;;;;;5079668;28;20134;-83
2023/03/31 03:20:47;;;;;;;26.23;3.30;;;10.50;99.90;;;;;;5096217;28;20466;-83
2023/03/31 03:23:14;;;;;;;33.38;4.25;;;10.50;99.90;;;;;;5095949;28;20135;-83
2023/03/31 03:25:41;;;;;;;26.27;3.90;;;10.50;99.90;;;;;;5097137;28;20496;-83
2023/03/31 03:28:08;;;;;;;22.17;3.78;;;10.50;99.90;;;;;;5099260;28;20054;-83
2023/03/31 03:30:34;;;;;;;22.80;3.35;;;10.50;99.90;;;;;;5099664;28;20450;-84
2023/03/31 03:33:02;;;;;;;14.85;2.65;;;10.40;99.90;;;;;;5100678;28;20444;-81
2023/03/31 03:35:29;;;;;;;22.17;4.20;;;10.40;99.90;;;;;;5117699;28;20036;-82
2023/03/31 03:37:55;;;;;;;15.85;2.70;;;10.30;99.90;;;;;;5118349;28;20039;-82
2023/03/31 03:40:22;;;;;;;23.15;2.53;;;10.40;99.90;;;;;;5100943;28;20043;-82
2023/03/31 03:42:48;;;;;;;20.05;2.65;;;10.30;99.90;;;;;;5099430;28;20043;-84
2023/03/31 03:45:15;;;;;;;23.27;3.50;;;10.30;99.90;;;;;;5083686;28;20044;-82
2023/03/31 03:47:43;;;;;;;21.70;3.10;;;10.30;99.90;;;;;;5099827;28;20385;-83
2023/03/31 03:50:10;;;;;;;16.48;3.17;;;10.30;99.90;;;;;;5099455;28;20489;-82
2023/03/31 03:52:39;;;;;;;15.43;2.97;;;10.20;99.90;;;;;;5100417;28;20051;-82
2023/03/31 03:55:05;;;;;;;23.17;3.35;;;10.20;99.90;;;;;;5100084;28;20104;-84
2023/03/31 03:57:32;;;;;;;18.92;2.65;;;10.20;99.90;;;;;;5099059;28;20100;-81
2023/03/31 03:59:59;;;;;;;19.00;3.22;;;10.20;99.90;;;;;;5100095;28;20082;-84
2023/03/31 04:02:27;;;;;;;12.98;2.25;;;10.20;99.90;;;;;;5099227;28;20075;-84
2023/03/31 04:04:54;;;;;;;14.45;2.90;;;10.20;99.90;;;;;;5100118;28;20094;-81
2023/03/31 04:07:21;;;;;;;18.98;2.90;;;10.20;99.90;;;;;;5100099;28;20108;-84
2023/03/31 04:09:47;;;;;;;16.17;2.67;;;10.20;99.90;;;;;;5098543;28;20039;-83
2023/03/31 04:12:14;;;;;;;18.73;3.47;;;10.20;99.90;;;;;;5099668;28;20424;-83
2023/03/31 04:14:41;;;;;;;20.95;2.97;;;10.20;99.90;;;;;;5117917;28;20032;-84
2023/03/31 04:17:09;;;;;;;20.23;3.75;;;10.20;99.90;;;;;;5098790;28;20062;-84
2023/03/31 04:19:37;;;;;;;18.30;2.95;;;10.20;99.90;;;;;;5099403;28;20412;-83
2023/03/31 04:22:04;;;;;;;19.23;3.38;;;10.20;99.90;;;;;;5099046;28;20147;-84
2023/03/31 04:24:31;;;;;;;18.83;3.35;;;10.20;99.90;;;;;;5099837;28;20043;-83
2023/03/31 04:26:58;;;;;;;25.15;3.33;;;10.20;99.90;;;;;;5099791;28;20108;-83
2023/03/31 04:29:25;;;;;;;18.15;2.80;;;10.20;99.90;;;;;;5098098;28;20137;-82
2023/03/31 04:31:52;;;;;;;24.35;3.13;;;10.20;99.90;;;;;;5099760;28;20378;-81
2023/03/31 04:34:25;;;;;;;15.32;2.35;;;10.20;99.90;;;;;;5099665;28;20043;-82
2023/03/31 04:36:54;;;;;;;17.08;1.67;;;10.20;99.90;;;;;;5081721;28;20138;-81
2023/03/31 04:39:29;;;;;;;16.33;2.55;;;10.20;99.90;;;;;;5098791;28;20040;-82
2023/03/31 04:41:56;;;;;;;15.77;2.40;;;10.20;99.90;;;;;;5099266;28;20517;-83
2023/03/31 04:44:23;;;;;;;20.60;2.58;;;10.20;99.90;;;;;;5098193;28;20032;-82
2023/03/31 04:46:49;;;;;;;19.00;2.28;;;10.10;99.90;;;;;;5099290;28;20385;-83
2023/03/31 04:49:16;;;;;;;12.82;2.28;;;10.10;99.90;;;;;;5098086;28;20043;-82
2023/03/31 04:51:43;;;;;;;16.08;2.05;;;10.10;99.90;;;;;;5099305;28;20469;-82
2023/03/31 04:54:10;;;;;;;18.60;2.13;;;10.10;99.90;;;;;;5099536;28;20072;-82
2023/03/31 04:56:37;;;;;;;15.75;2.25;;;10.10;99.90;;;;;;5097809;28;20044;-83
2023/03/31 04:59:03;;;;;;;13.15;2.05;;;10.10;99.90;;;;;;5116597;28;20046;-83
2023/03/31 05:01:34;;;;;;;3.58;1.15;;;10.00;99.90;;;;;;5081621;28;20378;-81
2023/03/31 05:04:02;;;;;;;5.47;1.33;;;10.00;99.90;;;;;;5097884;28;20039;-83
2023/03/31 05:06:28;;;;;;;5.57;1.42;;;10.00;99.90;;;;;;5099106;28;20042;-83
2023/03/31 05:08:55;;;;;;;7.30;1.45;;;10.00;99.90;;;;;;5097515;28;20338;-82
2023/03/31 05:11:22;;;;;;;11.07;1.85;;;10.00;99.90;;;;;;5098955;28;20048;-81
2023/03/31 05:13:48;;;;;;;10.88;1.63;;;10.00;99.90;;;;;;5098690;28;20073;-81
2023/03/31 05:16:16;;;;;;;14.98;1.88;;;10.00;99.90;;;;;;5080893;28;20530;-83
2023/03/31 05:18:43;;;;;;;10.38;1.70;;;9.90;99.90;;;;;;5098465;28;20067;-81
2023/03/31 05:21:09;;;;;;;8.75;1.63;;;10.00;99.90;;;;;;5081933;28;20043;-83
2023/03/31 05:23:36;;;;;;;8.50;1.50;;;9.90;99.90;;;;;;5115316;28;20042;-81
2023/03/31 05:26:03;;;;;;;6.22;1.20;;;10.00;99.90;;;;;;5116378;28;20400;-82
2023/03/31 05:28:30;;;;;;;4.28;1.45;;;10.00;99.90;;;;;;5098256;28;20550;-83
2023/03/31 05:30:58;;;;;;;9.25;1.58;;;10.00;99.90;;;;;;5097516;28;20437;-83
2023/03/31 05:33:24;;;;;;;4.75;1.30;;;10.00;99.90;;;;;;5116352;28;20425;-82
2023/03/31 05:35:51;;;;;;;10.32;1.88;;;10.00;99.90;;;;;;5097223;28;20035;-83
2023/03/31 05:38:18;;;;;;;12.15;1.83;;;10.00;99.90;;;;;;5115780;28;20067;-82
2023/03/31 05:40:45;;;;;;;14.40;1.88;;;10.00;99.90;;;;;;5098639;28;20043;-84
2023/03/31 05:43:11;;;;;;;14.00;2.83;;;10.00;99.90;;;;;;5080214;28;20388;-82
2023/03/31 05:45:38;;;;;;;10.75;1.92;;;10.00;99.90;;;;;;5116161;28;20053;-83
2023/03/31 05:48:05;;;;;;;28.63;3.63;;;10.00;99.90;;;;;;5115782;28;20040;-82
2023/03/31 05:50:32;;;;;;;17.27;2.65;;;10.00;99.90;;;;;;5095555;28;20351;-82
2023/03/31 05:52:59;;;;;;;21.13;2.85;;;10.00;99.90;;;;;;5098097;28;20347;-82
2023/03/31 05:55:25;;;;;;;15.18;1.98;;;10.00;99.90;;;;;;5080022;28;20039;-83
2023/03/31 05:57:53;;;;;;;15.10;2.17;;;10.00;99.90;;;;;;5097335;28;20097;-82
2023/03/31 06:00:19;;;;;;;17.85;2.72;;;10.00;99.90;;;;;;5097958;28;20112;-83
2023/03/31 06:02:46;;;;;;;15.00;2.40;;;10.00;99.90;;;;;;5096862;28;20050;-83
2023/03/31 06:05:13;;;;;;;13.13;1.85;;;10.00;99.90;;;;;;5097919;28;20354;-83
2023/03/31 06:07:39;;;;;;;13.05;1.92;;;10.00;99.90;;;;;;5080584;28;20488;-83
2023/03/31 06:10:07;;;;;;;10.55;1.77;;;10.00;99.90;;;;;;5114520;28;20035;-82
2023/03/31 06:12:34;;;;;;;18.85;2.42;;;10.00;99.90;;;;;;5097931;28;20038;-83
2023/03/31 06:15:00;;;;;;;6.68;1.45;;;10.00;99.90;;;;;;5097865;28;20503;-84
2023/03/31 06:17:27;;;;;;;11.75;2.03;;;10.00;99.90;;;;;;5096219;28;20043;-82
2023/03/31 06:19:54;;;;;;;8.30;1.50;;;10.00;99.90;;;;;;5080774;28;20159;-83
2023/03/31 06:22:21;;;;;;;10.73;1.83;;;10.00;99.90;;;;;;5079734;28;20055;-82
2023/03/31 06:24:47;;;;;;;11.40;1.30;;;10.00;99.90;;;;;;5115449;28;20351;-82
2023/03/31 06:27:15;;;;;;;11.05;1.52;;;9.90;99.90;;;;;;5080579;28;20480;-82
2023/03/31 06:29:42;;;;;;;11.75;1.88;;;10.00;99.90;;;;;;5096083;28;20035;-81
2023/03/31 06:32:09;;;;;;;13.25;1.85;;;10.00;99.90;;;;;;5115073;28;20123;-83
2023/03/31 06:34:35;;;;;;;18.00;4.53;;;10.00;99.90;;;;;;5097275;28;20036;-82
2023/03/31 06:37:02;;;;;;;13.65;2.25;;;10.00;99.90;;;;;;5079541;28;20054;-83
2023/03/31 06:39:29;;;;;;;14.38;2.63;;;10.00;99.90;;;;;;5097182;28;20047;-82
2023/03/31 06:41:55;;;;;;;12.60;2.35;;;10.00;99.90;;;;;;5114573;28;20123;-81
2023/03/31 06:44:26;;;;;;;20.15;2.38;;;10.00;99.90;;;;;;5072823;28;20044;-82
2023/03/31 06:46:53;;;;;;;14.93;1.85;;;10.10;99.90;;;;;;5077242;28;20447;-83
2023/03/31 06:49:20;;;;;;;15.13;2.30;;;10.00;99.90;;;;;;5093284;28;20059;-81
2023/03/31 06:51:47;;;;;;;16.30;2.00;;;10.10;99.90;;;;;;5076639;28;20033;-82
2023/03/31 06:54:13;;;;;;;19.30;2.38;;;10.10;99.90;;;;;;5076563;28;20097;-82
2023/03/31 06:56:40;;;;;;;15.20;2.25;;;10.10;99.90;;;;;;5059135;28;20055;-82
2023/03/31 06:59:06;;;;;;;16.80;2.35;;;10.20;99.90;;;;;;5076074;28;20044;-81
2023/03/31 07:01:36;;;;;;;22.00;2.75;;;10.20;99.90;;;;;;5078632;28;20101;-83
2023/03/31 07:04:03;;;;;;;11.52;2.13;;;10.20;99.90;;;;;;5063281;28;20063;-81
2023/03/31 07:09:17;;;;;;;17.02;2.83;;;10.20;99.90;;;;;;5077791;28;20056;-82
2023/03/31 07:11:46;;;;;;;15.05;2.42;;;10.30;99.90;;;;;;5078256;28;20378;-83
2023/03/31 07:14:12;;;;;;;21.67;2.45;;;10.30;99.90;;;;;;5078329;28;20040;-82
2023/03/31 07:16:41;;;;;;;13.65;2.80;;;10.30;99.90;;;;;;5060109;28;20059;-82
2023/03/31 07:19:09;;;;;;;21.70;3.25;;;10.30;99.90;;;;;;5060419;28;20041;-82
2023/03/31 07:21:36;;;;;;;22.20;2.63;;;10.30;99.90;;;;;;5061696;28;20066;-82
2023/03/31 07:24:03;;;;;;;15.93;2.80;;;10.30;99.90;;;;;;5097670;28;20050;-83
2023/03/31 07:26:30;;;;;;;15.10;2.40;;;10.30;99.90;;;;;;5080756;28;20048;-82
2023/03/31 07:28:58;;;;;;;10.02;2.15;;;10.30;99.90;;;;;;5097532;28;20044;-82
2023/03/31 07:31:24;;;;;;;22.20;3.17;;;10.30;99.90;;;;;;5080183;28;20447;-83
2023/03/31 07:33:51;;;;;;;14.10;2.45;;;10.40;99.90;;;;;;5063589;28;20467;-82
2023/03/31 07:36:19;;;;;;;13.52;2.67;;;10.40;99.90;;;;;;5062761;28;20040;-81
2023/03/31 07:38:48;;;;;;;16.88;2.83;;;10.40;99.90;;;;;;5080089;28;20123;-83
2023/03/31 07:41:14;;;;;;;17.30;2.58;;;10.40;99.90;;;;;;5080259;28;20040;-82
2023/03/31 07:43:41;;;;;;;13.02;2.35;;;10.40;99.90;;;;;;5079446;28;20074;-83
2023/03/31 07:46:08;;;;;;;17.15;2.25;;;10.50;99.90;;;;;;5063652;28;20039;-81
2023/03/31 07:48:35;;;;;;;20.98;2.70;;;10.40;99.90;;;;;;5097904;28;20072;-82
2023/03/31 07:51:02;;;;;;;27.63;2.95;;;10.50;99.90;;;;;;5062584;28;20040;-83
2023/03/31 07:53:33;;;;;;;19.63;2.58;;;10.50;99.90;;;;;;5064556;28;20060;-81
2023/03/31 07:56:00;;;;;;;20.80;2.97;;;10.50;99.90;;;;;;5096983;28;20044;-81
2023/03/31 07:58:27;;;;;;;18.75;2.50;;;10.50;99.90;;;;;;5063204;28;20044;-83
2023/03/31 08:00:54;;;;;;;19.92;4.40;;;10.50;99.90;;;;;;5080157;28;20048;-83
2023/03/31 08:03:21;;;;;;;23.55;2.95;;;10.50;99.90;;;;;;5079121;28;20051;-82
2023/03/31 08:05:47;;;;;;;29.58;3.80;;;10.50;99.90;;;;;;5079766;28;20051;-81
2023/03/31 08:08:17;;;;;;;25.35;2.90;;;10.60;99.90;;;;;;5063496;28;20062;-82
2023/03/31 08:10:44;;;;;;;19.83;2.63;;;10.60;99.90;;;;;;5079194;28;20044;-82
2023/03/31 08:13:11;;;;;;;13.00;2.40;;;10.70;99.90;;;;;;5096835;28;20112;-82
2023/03/31 08:15:37;;;;;;;25.42;3.55;;;10.70;99.90;;;;;;5096648;28;20036;-82
2023/03/31 08:18:05;;;;;;;18.40;2.80;;;10.80;99.90;;;;;;5062819;28;20451;-83
2023/03/31 08:20:32;;;;;;;17.38;2.72;;;10.80;99.90;;;;;;5079762;28;20367;-83
2023/03/31 08:22:59;;;;;;;14.88;2.40;;;10.80;99.90;;;;;;5079062;28;20123;-83
2023/03/31 08:25:25;;;;;;;27.98;2.95;;;10.90;99.90;;;;;;5079593;28;20478;-82
2023/03/31 08:30:38;;;;;;;18.45;3.75;;;10.90;99.90;;;;;;5078485;28;20364;-82
2023/03/31 08:33:04;;;;;;;21.60;2.72;;;10.90;99.90;;;;;;5079343;28;20051;-82
2023/03/31 08:35:31;;;;;;;21.75;2.97;;;10.80;99.90;;;;;;5061935;28;20068;-83
2023/03/31 08:40:44;;;;;;;19.90;2.38;;;10.70;99.90;;;;;;5090679;28;20047;-83
2023/03/31 08:43:15;;;;;;;18.67;2.63;;;10.70;99.90;;;;;;5062098;28;20044;-85
2023/03/31 08:45:45;;;;;;;17.88;3.08;;;10.70;99.90;;;;;;5096579;28;20036;-85
2023/03/31 08:48:13;;;;;;;22.15;2.85;;;10.70;99.90;;;;;;5079100;28;20028;-83
2023/03/31 08:50:40;;;;;;;17.40;2.60;;;10.80;99.90;;;;;;5078172;28;20040;-83
2023/03/31 08:53:06;;;;;;;16.25;2.70;;;10.80;99.90;;;;;;5096792;28;20456;-82
2023/03/31 08:55:33;;;;;;;14.75;2.47;;;10.80;99.90;;;;;;5078536;28;20042;-82
2023/03/31 08:58:00;;;;;;;19.10;2.92;;;10.80;99.90;;;;;;5062944;28;20087;-81
2023/03/31 09:00:27;;;;;;;18.17;3.00;;;10.80;99.90;;;;;;5078726;28;20055;-83
2023/03/31 09:02:53;;;;;;;18.55;2.95;;;10.80;99.90;;;;;;5077836;28;20040;-83
2023/03/31 09:05:20;;;;;;;21.17;2.72;;;10.80;99.90;;;;;;5078213;28;20059;-82
2023/03/31 09:07:50;;;;;;;17.23;2.42;;;10.80;99.90;;;;;;5078284;28;20075;-83
2023/03/31 09:10:19;;;;;;;18.25;2.78;;;10.80;99.90;;;;;;5077992;28;20134;-84
2023/03/31 09:12:54;;;;;;;20.13;2.88;;;10.80;99.90;;;;;;5078396;28;20046;-85
2023/03/31 09:15:41;;;;;;;20.33;3.38;;;10.80;99.90;;;;;;5095705;28;20063;-82
2023/03/31 09:18:21;;;;;;;15.93;3.13;;;10.70;99.90;;;;;;5062451;28;20070;-82
2023/03/31 09:20:53;;;;;;;18.73;3.28;;;10.70;99.90;;;;;;5074495;28;20063;-83
2023/03/31 09:23:38;;;;;;;18.60;3.08;;;10.70;99.90;;;;;;5080617;28;20047;-82
2023/03/31 09:28:56;;;;;;;12.90;2.53;;;10.70;99.90;;;;;;5076570;28;20079;-87
2023/03/31 09:31:22;;;;;;;13.00;2.63;;;10.70;99.90;;;;;;5062059;28;20036;-85
2023/03/31 09:33:52;;;;;;;13.98;2.53;;;10.70;99.90;;;;;;5061649;28;20044;-85
2023/03/31 09:39:26;;;;;;;19.33;2.72;;;10.60;99.90;;;;;;5078127;28;20027;-87
2023/03/31 09:41:54;;;;;;;19.05;2.80;;;10.60;99.90;;;;;;5078406;28;20147;-86
2023/03/31 09:44:21;;;;;;;14.55;2.88;;;10.60;99.90;;;;;;5067050;28;20126;-86
2023/03/31 09:46:50;;;;;;;15.45;2.80;;;10.60;99.90;;;;;;5098494;28;20079;-86
2023/03/31 09:49:17;;;;;;;16.90;2.55;;;10.60;99.90;;;;;;5080755;28;20052;-85
2023/03/31 09:51:44;;;;;;;14.85;2.47;;;10.60;99.90;;;;;;5087431;28;20054;-85
2023/03/31 09:54:14;;;;;;;17.92;2.67;;;10.70;99.90;;;;;;5061768;28;20055;-85
2023/03/31 09:56:40;;;;;;;19.85;2.63;;;10.70;99.90;;;;;;5060552;28;20063;-83
2023/03/31 09:59:18;;;;;;;25.58;2.60;;;10.70;99.90;;;;;;5061804;28;20131;-84
2023/03/31 10:01:45;;;;;;;20.80;2.92;;;10.70;99.90;;;;;;5077597;28;20048;-84
2023/03/31 10:04:12;;;;;;;19.20;2.88;;;10.80;99.90;;;;;;5076824;28;20075;-85
2023/03/31 10:09:26;;;;;;;18.73;2.90;;;10.90;99.90;;;;;;5076558;28;20412;-85
2023/03/31 10:11:53;;;;;;;15.40;2.55;;;11.00;99.90;;;;;;5061060;28;20374;-84
2023/03/31 10:14:20;;;;;;;17.02;3.35;;;11.00;99.90;;;;;;5077069;28;20072;-83
2023/03/31 10:19:33;;;;;;;18.73;2.58;;;11.00;99.90;;;;;;5077466;28;20040;-86
2023/03/31 10:22:00;;;;;;;22.85;3.45;;;10.90;99.90;;;;;;5077343;28;20040;-86
2023/03/31 10:24:27;;;;;;;18.27;2.88;;;10.90;99.90;;;;;;5077163;28;20123;-90
2023/03/31 10:29:40;;;;;;;12.43;2.22;;;11.00;99.90;;;;;;5076378;28;20108;-85
2023/03/31 10:32:06;;;;;;;14.98;2.88;;;11.00;99.90;;;;;;5077398;28;20040;-85
2023/03/31 10:34:33;;;;;;;16.30;2.47;;;11.00;99.90;;;;;;5060892;28;20048;-85
2023/03/31 10:37:02;;;;;;;10.95;2.08;;;11.00;99.90;;;;;;5075832;28;20137;-84
2023/03/31 10:39:29;;;;;;;11.15;2.50;;;11.00;99.90;;;;;;5061430;28;20442;-85
2023/03/31 10:41:56;;;;;;;13.95;2.10;;;10.90;99.90;;;;;;5060649;28;20459;-85
2023/03/31 10:44:22;;;;;;;21.55;3.22;;;11.00;99.90;;;;;;5066367;28;20112;-86
2023/03/31 10:46:51;;;;;;;18.73;2.53;;;11.10;99.90;;;;;;5098108;28;20461;-87
2023/03/31 10:49:18;;;;;;;11.88;2.05;;;11.10;99.90;;;;;;5079865;28;20043;-85
2023/03/31 10:51:44;;;;;;;11.40;2.17;;;11.20;99.90;;;;;;5062051;28;20050;-84
2023/03/31 10:54:11;;;;;;;14.40;1.90;;;11.30;99.90;;;;;;5076941;28;20036;-84
2023/03/31 10:56:38;;;;;;;15.48;1.88;;;11.40;99.90;;;;;;5059044;28;20048;-88
2023/03/31 10:59:05;;;;;;;9.80;1.90;;;11.60;99.90;;;;;;5077209;28;20127;-85
2023/03/31 11:01:32;;;;;;;9.88;2.25;;;11.50;99.90;;;;;;5077122;28;20044;-84
2023/03/31 11:03:59;;;;;;;11.07;1.90;;;11.50;99.90;;;;;;5059919;28;20059;-85
2023/03/31 11:09:12;;;;;;;10.05;2.15;;;11.60;99.90;;;;;;5077040;28;20058;-86
2023/03/31 11:11:41;;;;;;;9.73;1.83;;;11.60;99.90;;;;;;5077231;28;20048;-87
2023/03/31 11:14:08;;;;;;;7.45;1.70;;;11.70;99.90;;;;;;5077120;28;20471;-86
2023/03/31 11:19:21;;;;;;;8.98;1.90;;;11.80;99.90;;;;;;5078048;28;20542;-86
2023/03/31 11:21:47;;;;;;;12.50;2.40;;;11.80;99.90;;;;;;5061657;28;20048;-86
2023/03/31 11:24:14;;;;;;;5.32;1.60;;;11.90;99.90;;;;;;5078008;28;20051;-88
2023/03/31 11:29:31;;;;;;;4.30;1.15;;;11.90;99.90;;;;;;5058534;28;20056;-87
2023/03/31 11:31:58;;;;;;;9.35;1.65;;;12.00;99.90;;;;;;5057113;28;20044;-88
2023/03/31 11:34:26;;;;;;;5.55;1.13;;;12.00;99.90;;;;;;5060105;28;20051;-88
2023/03/31 11:39:24;;;;;;;3.35;1.02;;;12.10;99.90;;;;;;5069365;28;20040;-86
2023/03/31 11:41:51;;;;;;;3.53;1.02;;;12.00;99.90;;;;;;5060160;28;20347;-86
2023/03/31 11:44:18;;;;;;;4.55;1.00;;;11.90;99.90;;;;;;5074207;28;20044;-87
2023/03/31 11:46:46;;;;;;;4.15;1.05;;;11.90;99.90;;;;;;5061270;28;20036;-86
2023/03/31 11:49:13;;;;;;;3.00;1.00;;;11.90;99.90;;;;;;5079541;28;20048;-87
2023/03/31 11:51:39;;;;;;;4.07;1.13;;;11.90;99.90;;;;;;5081498;28;20082;-86
2023/03/31 11:54:11;;;;;;;4.68;1.45;;;11.90;99.90;;;;;;5081067;28;20056;-86
2023/03/31 11:56:37;;;;;;;2.53;0.90;;;11.90;99.90;;;;;;5060226;28;20056;-86
2023/03/31 11:59:04;;;;;;;2.40;1.00;;;12.00;99.90;;;;;;5043925;28;20033;-88
2023/03/31 12:01:36;;;;;;;2.45;1.10;;;12.00;99.90;;;;;;5044033;28;20106;-86
2023/03/31 12:04:03;;;;;;;2.95;1.10;;;12.10;99.90;;;;;;5059769;28;20121;-86
2023/03/31 12:09:15;;;;;;;3.25;1.00;;;12.10;99.90;;;;;;5076979;28;20072;-87
2023/03/31 12:11:51;;;;;;;4.00;1.20;;;12.20;99.90;;;;;;5058817;28;20051;-84
2023/03/31 12:14:18;;;;;;;2.17;1.10;;;12.20;99.90;;;;;;5060174;28;20045;-86
2023/03/31 12:19:30;;;;;;;6.68;1.42;;;12.20;99.90;;;;;;5060081;28;20049;-88
2023/03/31 12:21:57;;;;;;;2.42;1.27;;;12.30;99.90;;;;;;5059617;28;20094;-84
2023/03/31 12:24:24;;;;;;;3.13;1.30;;;12.30;99.90;;;;;;5059121;28;20466;-84
2023/03/31 12:29:36;;;;;;;3.35;1.40;;;12.30;99.90;;;;;;5058822;28;20410;-84
2023/03/31 12:32:04;;;;;;;3.45;1.20;;;12.30;99.90;;;;;;5043061;28;20044;-85
2023/03/31 12:34:32;;;;;;;4.43;1.30;;;12.30;99.90;;;;;;5059268;28;20055;-84
2023/03/31 12:37:00;;;;;;;3.28;1.10;;;12.40;99.90;;;;;;5057943;28;20044;-85
2023/03/31 12:39:27;;;;;;;3.30;1.10;;;12.40;99.90;;;;;;5059012;28;20140;-85
2023/03/31 12:41:54;;;;;;;4.10;1.30;;;12.50;99.90;;;;;;5042536;28;20063;-85
2023/03/31 12:44:20;;;;;;;3.40;1.02;;;12.50;99.90;;;;;;5047895;28;20036;-84
2023/03/31 12:46:47;;;;;;;6.00;1.33;;;12.50;99.90;;;;;;5070653;28;20048;-83
2023/03/31 12:49:14;;;;;;;4.38;1.10;;;12.50;99.90;;;;;;5057934;28;20109;-84
2023/03/31 12:51:42;;;;;;;4.80;1.20;;;12.50;99.90;;;;;;5042352;28;20097;-85
2023/03/31 12:54:09;;;;;;;4.50;1.27;;;12.60;99.90;;;;;;5058729;28;20076;-84
2023/03/31 12:56:36;;;;;;;6.65;1.40;;;12.80;99.90;;;;;;5084187;28;20044;-84
2023/03/31 12:59:05;;;;;;;3.75;1.30;;;13.20;99.90;;;;;;5079340;28;20050;-84
2023/03/31 13:01:32;;;;;;;4.68;1.33;;;13.40;99.90;;;;;;5061730;28;20156;-84
2023/03/31 13:03:59;;;;;;;3.83;1.33;;;13.70;99.90;;;;;;5078641;28;20055;-85
2023/03/31 13:06:34;;;;;;;6.20;1.60;;;14.00;99.90;;;;;;5080236;28;20477;-84
2023/03/31 13:09:04;;;;;;;4.67;1.50;;;14.50;99.90;;;;;;5077634;28;20212;-84
2023/03/31 13:11:30;;;;;;;5.88;1.52;;;14.80;99.90;;;;;;5096653;28;20338;-84
2023/03/31 13:13:57;;;;;;;5.28;1.48;;;14.60;99.90;;;;;;5062039;28;20455;-85
2023/03/31 13:16:27;;;;;;;4.40;1.20;;;14.30;99.90;;;;;;5078403;28;20055;-86
2023/03/31 13:18:54;;;;;;;2.88;1.10;;;14.00;99.90;;;;;;5061842;28;20127;-85
2023/03/31 13:21:21;;;;;;;3.47;1.20;;;13.90;99.90;;;;;;5061752;28;20131;-85
2023/03/31 13:23:47;;;;;;;4.63;1.30;;;13.80;99.90;;;;;;5077996;28;20055;-85
2023/03/31 13:26:15;;;;;;;5.15;1.33;;;13.80;99.90;;;;;;5061768;28;20078;-85
2023/03/31 13:28:42;;;;;;;4.68;1.20;;;13.90;99.90;;;;;;5078436;28;20447;-83
2023/03/31 13:31:09;;;;;;;4.53;1.23;;;14.10;99.90;;;;;;5067345;28;20414;-84
2023/03/31 13:33:36;;;;;;;2.85;1.10;;;14.50;99.90;;;;;;5055640;28;20033;-85
2023/03/31 13:38:48;;;;;;;3.53;1.20;;;14.70;99.90;;;;;;5055753;28;20045;-83